createdAt,value
2023-05-08T00:01:37.443Z,73.29
2023-05-08T00:04:10.460Z,74.16
2023-05-08T00:06:44.943Z,73.53
2023-05-08T00:09:17.875Z,72.69
2023-05-08T00:11:50.740Z,74.31
2023-05-08T00:14:23.684Z,74.09
2023-05-08T00:16:56.485Z,73.98
2023-05-08T00:19:29.349Z,74.69
2023-05-08T00:22:03.920Z,72.96
2023-05-08T00:24:36.702Z,75.36
2023-05-08T00:27:09.514Z,75.68
2023-05-08T00:29:42.975Z,72.95
2023-05-08T00:32:16.217Z,74.37
2023-05-08T00:34:49.133Z,74.82
2023-05-08T00:37:23.489Z,75.49
2023-05-08T00:39:57.032Z,76.98
2023-05-08T00:42:29.851Z,75.58
2023-05-08T00:45:03.336Z,76.24
2023-05-08T00:47:37.109Z,76.51
2023-05-08T00:50:11.502Z,75.51
2023-05-08T00:52:47.106Z,76.46
2023-05-08T00:55:20.581Z,76.34
2023-05-08T00:57:53.786Z,75.96
2023-05-08T01:00:27.290Z,74.54
2023-05-08T01:03:01.684Z,75.30
2023-05-08T01:05:34.893Z,74.86
2023-05-08T01:08:09.146Z,75.48
2023-05-08T01:10:48.609Z,75.48
2023-05-08T01:13:41.686Z,74.68
2023-05-08T01:16:18.003Z,75.08
2023-05-08T01:18:58.350Z,76.05
2023-05-08T01:21:38.038Z,75.94
2023-05-08T01:24:43.589Z,75.22
2023-05-08T01:27:30.592Z,75.89
2023-05-08T01:30:21.253Z,73.57
2023-05-08T01:33:00.999Z,76.90
2023-05-08T01:35:46.514Z,74.67
2023-05-08T01:38:27.989Z,74.29
2023-05-08T01:41:08.185Z,75.00
2023-05-08T01:43:49.583Z,74.75
2023-05-08T01:46:28.002Z,74.12
2023-05-08T01:49:07.867Z,73.88
2023-05-08T01:51:44.820Z,73.56
2023-05-08T01:54:22.808Z,73.80
2023-05-08T01:56:59.473Z,75.17
2023-05-08T01:59:37.018Z,75.27
2023-05-08T02:02:11.153Z,74.75
2023-05-08T02:04:46.035Z,72.62
2023-05-08T02:07:20.169Z,73.40
2023-05-08T02:09:55.598Z,75.57
2023-05-08T02:12:30.125Z,77.13
2023-05-08T02:15:04.338Z,75.08
2023-05-08T02:17:40.687Z,75.53
2023-05-08T02:20:16.743Z,76.29
2023-05-08T02:22:52.604Z,77.46
2023-05-08T02:25:27.218Z,77.32
2023-05-08T02:28:00.974Z,76.19
2023-05-08T02:30:35.351Z,77.14
2023-05-08T02:33:11.463Z,75.90
2023-05-08T02:35:49.265Z,77.15
2023-05-08T02:38:23.712Z,77.15
2023-05-08T02:41:01.926Z,74.86
2023-05-08T02:43:35.200Z,75.69
2023-05-08T02:46:13.675Z,77.08
2023-05-08T02:48:57.160Z,76.22
2023-05-08T02:51:40.785Z,75.19
2023-05-08T02:54:20.664Z,75.42
2023-05-08T02:57:00.881Z,78.29
2023-05-08T02:59:39.254Z,73.75
2023-05-08T03:02:18.333Z,77.27
2023-05-08T03:04:56.203Z,76.31
2023-05-08T03:07:32.174Z,78.17
2023-05-08T03:10:11.744Z,79.44
2023-05-08T03:12:48.994Z,79.16
2023-05-08T03:15:28.297Z,78.21
2023-05-08T03:18:08.465Z,78.18
2023-05-08T03:20:46.064Z,77.89
2023-05-08T03:23:22.682Z,74.46
2023-05-08T03:25:58.746Z,77.29
2023-05-08T03:28:32.661Z,76.73
2023-05-08T03:31:07.793Z,75.29
2023-05-08T03:33:43.437Z,75.94
2023-05-08T03:36:18.189Z,76.12
2023-05-08T03:38:52.408Z,75.06
2023-05-08T03:41:26.734Z,75.07
2023-05-08T03:43:59.974Z,77.05
2023-05-08T03:46:34.203Z,77.43
2023-05-08T03:49:09.778Z,76.46
2023-05-08T03:51:44.244Z,78.09
2023-05-08T03:54:18.551Z,79.84
2023-05-08T03:56:53.452Z,81.37
2023-05-08T03:59:45.359Z,81.89
2023-05-08T04:02:24.077Z,79.68
2023-05-08T04:05:06.844Z,77.89
2023-05-08T04:07:48.391Z,78.11
2023-05-08T04:10:28.068Z,77.99
2023-05-08T04:13:06.410Z,78.75
2023-05-08T04:15:53.246Z,77.75
2023-05-08T04:18:31.131Z,79.39
2023-05-08T04:21:11.971Z,79.88
2023-05-08T04:23:46.904Z,78.71
2023-05-08T04:26:22.333Z,79.33
2023-05-08T04:28:57.865Z,78.68
2023-05-08T04:31:31.996Z,79.84
2023-05-08T04:34:05.603Z,77.96
2023-05-08T04:36:38.675Z,79.08
2023-05-08T04:39:12.935Z,78.30
2023-05-08T04:41:48.720Z,80.91
2023-05-08T04:44:21.621Z,79.64
2023-05-08T04:46:54.623Z,79.82
2023-05-08T04:49:27.492Z,80.01
2023-05-08T04:52:01.196Z,79.80
2023-05-08T04:54:34.454Z,78.52
2023-05-08T04:57:08.764Z,79.93
2023-05-08T04:59:41.734Z,79.44
2023-05-08T05:02:15.562Z,79.38
2023-05-08T05:04:48.601Z,78.76
2023-05-08T05:07:21.918Z,79.89
2023-05-08T05:09:54.799Z,79.74
2023-05-08T05:12:29.056Z,80.28
2023-05-08T05:15:01.905Z,80.21
2023-05-08T05:17:38.794Z,80.48
2023-05-08T05:20:13.233Z,80.48
2023-05-08T05:22:46.084Z,78.82
2023-05-08T05:25:19.374Z,78.95
2023-05-08T05:27:54.067Z,80.45
2023-05-08T05:30:27.197Z,80.65
2023-05-08T05:33:00.501Z,79.99
2023-05-08T05:35:33.361Z,79.23
2023-05-08T05:38:07.273Z,78.76
2023-05-08T05:40:40.395Z,78.43
2023-05-08T05:43:14.898Z,76.21
2023-05-08T05:45:48.009Z,77.88
2023-05-08T05:51:18.263Z,77.60
2023-05-08T05:53:51.512Z,78.24
2023-05-08T05:56:24.473Z,78.02
2023-05-08T05:58:58.725Z,77.25
2023-05-08T06:01:32.379Z,78.23
2023-05-08T06:04:05.496Z,78.15
2023-05-08T06:06:39.336Z,77.48
2023-05-08T06:09:12.136Z,77.96
2023-05-08T06:11:44.934Z,77.53
2023-05-08T06:14:19.115Z,76.14
2023-05-08T06:16:52.037Z,76.85
2023-05-08T06:19:25.126Z,76.59
2023-05-08T06:21:57.917Z,77.54
2023-05-08T06:24:30.806Z,77.96
2023-05-08T06:27:03.666Z,77.39
2023-05-08T06:29:38.135Z,77.36
2023-05-08T06:32:10.948Z,76.88
2023-05-08T06:34:43.728Z,75.86
2023-05-08T06:37:16.595Z,78.09
2023-05-08T06:39:57.298Z,77.12
2023-05-08T06:42:37.053Z,76.57
2023-05-08T06:45:12.236Z,76.99
2023-05-08T06:47:45.585Z,75.08
2023-05-08T06:50:18.396Z,75.92
2023-05-08T06:52:51.257Z,75.49
2023-05-08T06:55:24.090Z,75.46
2023-05-08T06:57:57.154Z,74.59
2023-05-08T07:00:31.454Z,75.79
2023-05-08T07:03:04.491Z,75.65
2023-05-08T07:05:37.344Z,75.34
2023-05-08T07:08:10.102Z,75.98
2023-05-08T07:10:42.940Z,74.89
2023-05-08T07:13:19.901Z,73.79
2023-05-08T07:15:54.237Z,73.93
2023-05-08T07:18:27.104Z,74.44
2023-05-08T07:20:59.924Z,73.26
2023-05-08T07:23:32.880Z,74.53
2023-05-08T07:26:05.837Z,73.70
2023-05-08T07:28:38.691Z,74.34
2023-05-08T07:31:13.329Z,73.78
2023-05-08T07:33:46.736Z,72.34
2023-05-08T07:36:19.607Z,73.20
2023-05-08T07:38:52.399Z,73.73
2023-05-08T07:41:26.508Z,74.58
2023-05-08T07:43:59.507Z,73.76
2023-05-08T07:46:34.187Z,73.64
2023-05-08T07:49:07.175Z,72.36
2023-05-08T07:51:40.178Z,70.70
2023-05-08T07:54:12.940Z,71.55
2023-05-08T07:56:46.037Z,70.43
2023-05-08T07:59:18.801Z,71.35
2023-05-08T08:01:53.293Z,70.32
2023-05-08T08:04:26.157Z,69.94
2023-05-08T08:06:59.090Z,69.61
2023-05-08T08:09:32.190Z,67.72
2023-05-08T08:12:05.068Z,67.37
2023-05-08T08:14:37.861Z,66.28
2023-05-08T08:17:12.129Z,69.13
2023-05-08T08:19:45.216Z,65.78
2023-05-08T08:22:17.999Z,67.43
2023-05-08T08:24:52.381Z,67.94
2023-05-08T08:27:27.068Z,65.28
2023-05-08T08:30:12.915Z,65.06
2023-05-08T08:32:50.983Z,64.77
2023-05-08T08:35:29.073Z,64.59
2023-05-08T08:38:02.463Z,63.68
2023-05-08T08:40:40.464Z,64.58
2023-05-08T08:43:13.324Z,63.77
2023-05-08T08:45:46.089Z,62.41
2023-05-08T08:48:21.260Z,62.21
2023-05-08T08:50:59.785Z,63.88
2023-05-08T08:53:38.376Z,60.33
2023-05-08T08:56:13.307Z,60.43
2023-05-08T08:58:52.845Z,61.78
2023-05-08T09:01:29.172Z,62.28
2023-05-08T09:04:03.836Z,61.60
2023-05-08T09:06:37.011Z,60.23
2023-05-08T09:09:09.907Z,60.50
2023-05-08T09:11:44.667Z,60.53
2023-05-08T09:14:17.498Z,58.60
2023-05-08T09:16:50.284Z,58.40
2023-05-08T09:19:27.177Z,58.15
2023-05-08T09:22:02.030Z,57.45
2023-05-08T09:24:57.869Z,57.04
2023-05-08T09:27:31.939Z,56.18
2023-05-08T09:30:06.637Z,55.59
2023-05-08T09:32:41.545Z,55.09
2023-05-08T09:35:15.940Z,54.82
2023-05-08T09:37:49.130Z,54.80
2023-05-08T09:40:23.516Z,53.65
2023-05-08T09:42:56.289Z,56.53
2023-05-08T09:45:30.930Z,56.57
2023-05-08T09:48:03.992Z,57.15
2023-05-08T09:50:38.299Z,58.83
2023-05-08T09:53:11.325Z,58.28
2023-05-08T09:55:47.789Z,57.56
2023-05-08T09:58:22.424Z,56.98
2023-05-08T10:00:55.620Z,56.91
2023-05-08T10:03:46.978Z,57.33
2023-05-08T10:06:21.346Z,57.13
2023-05-08T10:09:08.001Z,56.51
2023-05-08T10:11:41.610Z,57.62
2023-05-08T10:14:14.521Z,54.96
2023-05-08T10:16:49.680Z,55.18
2023-05-08T10:19:24.131Z,54.79
2023-05-08T10:22:01.988Z,52.60
2023-05-08T10:24:35.485Z,51.06
2023-05-08T10:27:13.467Z,52.60
2023-05-08T10:29:53.542Z,50.95
2023-05-08T10:32:27.426Z,51.92
2023-05-08T10:35:01.257Z,51.10
2023-05-08T10:37:37.700Z,50.90
2023-05-08T10:40:12.165Z,50.00
2023-05-08T10:42:46.186Z,50.27
2023-05-08T10:45:19.567Z,51.23
2023-05-08T10:48:00.515Z,50.53
2023-05-08T10:50:46.454Z,50.20
2023-05-08T10:53:26.816Z,49.26
2023-05-08T10:56:00.539Z,50.87
2023-05-08T10:58:35.664Z,49.59
2023-05-08T11:01:19.567Z,51.51
2023-05-08T11:03:52.923Z,50.34
2023-05-08T11:06:46.578Z,48.89
2023-05-08T11:09:29.361Z,49.57
2023-05-08T11:12:09.182Z,49.75
2023-05-08T11:14:43.821Z,48.63
2023-05-08T11:17:24.418Z,48.01
2023-05-08T11:19:59.339Z,46.60
2023-05-08T11:22:33.129Z,46.92
2023-05-08T11:25:10.560Z,47.19
2023-05-08T11:28:13.807Z,47.94
2023-05-08T11:30:46.863Z,45.14
2023-05-08T11:33:20.828Z,46.83
2023-05-08T11:35:56.263Z,46.09
2023-05-08T11:38:35.640Z,45.64
2023-05-08T11:41:11.396Z,46.77
2023-05-08T11:44:08.053Z,45.26
2023-05-08T11:46:50.634Z,44.38
2023-05-08T11:49:28.982Z,45.68
2023-05-08T11:52:05.809Z,44.74
2023-05-08T11:54:38.662Z,45.04
2023-05-08T11:57:12.816Z,43.72
2023-05-08T11:59:45.625Z,41.29
2023-05-08T12:02:18.531Z,42.74
2023-05-08T12:04:51.552Z,43.00
2023-05-08T12:07:24.408Z,40.95
2023-05-08T12:09:57.253Z,41.69
2023-05-08T12:12:41.204Z,44.68
2023-05-08T12:15:16.210Z,42.00
2023-05-08T12:17:49.173Z,41.59
2023-05-08T12:20:22.170Z,42.71
2023-05-08T12:22:54.954Z,43.20
2023-05-08T12:25:27.955Z,43.92
2023-05-08T12:28:02.174Z,49.64
2023-05-08T12:30:35.115Z,40.75
2023-05-08T12:33:08.333Z,48.41
2023-05-08T12:35:41.579Z,42.59
2023-05-08T12:38:14.399Z,42.48
2023-05-08T12:40:49.053Z,43.29
2023-05-08T12:43:32.140Z,43.54
2023-05-08T12:46:05.773Z,42.54
2023-05-08T12:48:38.614Z,44.32
2023-05-08T12:51:11.725Z,44.81
2023-05-08T12:53:47.137Z,45.40
2023-05-08T12:56:23.139Z,45.07
2023-05-08T12:59:00.064Z,44.93
2023-05-08T13:01:33.065Z,46.11
2023-05-08T13:04:08.707Z,46.31
2023-05-08T13:06:41.508Z,47.00
2023-05-08T13:09:19.161Z,48.22
2023-05-08T13:11:51.993Z,47.82
2023-05-08T13:14:26.080Z,46.58
2023-05-08T13:16:59.665Z,47.00
2023-05-08T13:19:32.675Z,47.98
2023-05-08T13:22:05.483Z,47.00
2023-05-08T13:24:38.293Z,48.66
2023-05-08T13:27:11.024Z,48.86
2023-05-08T13:29:45.182Z,48.33
2023-05-08T13:32:17.989Z,49.15
2023-05-08T13:34:52.308Z,49.45
2023-05-08T13:37:28.070Z,49.48
2023-05-08T13:40:00.960Z,50.21
2023-05-08T13:42:33.780Z,50.80
2023-05-08T13:45:10.564Z,49.90
2023-05-08T13:47:44.199Z,48.33
2023-05-08T13:50:18.309Z,49.19
2023-05-08T13:52:54.485Z,48.58
2023-05-08T13:55:27.843Z,48.56
2023-05-08T13:58:00.644Z,48.70
2023-05-08T14:00:35.792Z,49.16
2023-05-08T14:03:08.845Z,48.21
2023-05-08T14:05:41.818Z,50.22
2023-05-08T14:08:14.602Z,48.62
2023-05-08T14:10:47.389Z,48.97
2023-05-08T14:13:20.362Z,49.38
2023-05-08T14:15:54.768Z,49.13
2023-05-08T14:18:27.538Z,49.52
2023-05-08T14:21:00.527Z,49.39
2023-05-08T14:23:35.018Z,48.26
2023-05-08T14:26:07.812Z,49.07
2023-05-08T14:28:40.600Z,48.14
2023-05-08T14:31:14.930Z,48.66
2023-05-08T14:33:47.770Z,48.69
2023-05-08T14:36:20.755Z,49.01
2023-05-08T14:38:54.664Z,48.79
2023-05-08T14:41:29.016Z,49.32
2023-05-08T14:44:01.850Z,50.02
2023-05-08T14:46:36.186Z,51.11
2023-05-08T14:49:08.902Z,50.56
2023-05-08T14:51:41.701Z,51.94
2023-05-08T14:54:15.038Z,49.79
2023-05-08T14:56:47.977Z,49.03
2023-05-08T14:59:21.047Z,49.31
2023-05-08T15:01:55.320Z,48.89
2023-05-08T15:04:28.224Z,49.12
2023-05-08T15:07:01.016Z,49.26
2023-05-08T15:09:33.847Z,49.17
2023-05-08T15:12:07.158Z,49.29
2023-05-08T15:14:39.903Z,48.55
2023-05-08T15:17:14.064Z,47.88
2023-05-08T15:19:47.015Z,47.99
2023-05-08T15:22:19.862Z,47.41
2023-05-08T15:24:53.882Z,46.19
2023-05-08T15:27:27.117Z,44.61
2023-05-08T15:29:59.943Z,41.56
2023-05-08T15:32:34.840Z,40.53
2023-05-08T15:35:08.327Z,42.86
2023-05-08T15:37:41.261Z,42.44
2023-05-08T15:40:14.618Z,42.13
2023-05-08T15:42:47.582Z,45.39
2023-05-08T15:45:20.638Z,44.03
2023-05-08T15:47:54.934Z,46.08
2023-05-08T15:50:27.608Z,43.10
2023-05-08T15:53:00.388Z,44.90
2023-05-08T15:55:33.173Z,43.08
2023-05-08T15:58:06.006Z,47.34
2023-05-08T16:00:44.766Z,48.63
2023-05-08T16:03:20.048Z,46.18
2023-05-08T16:05:53.131Z,43.93
2023-05-08T16:08:26.102Z,42.05
2023-05-08T16:10:58.925Z,43.63
2023-05-08T16:13:31.766Z,48.37
2023-05-08T16:16:05.974Z,43.97
2023-05-08T16:18:40.251Z,42.32
2023-05-08T16:21:13.131Z,41.90
2023-05-08T16:23:46.013Z,43.04
2023-05-08T16:26:20.156Z,43.33
2023-05-08T16:28:52.878Z,45.24
2023-05-08T16:31:25.822Z,43.84
2023-05-08T16:33:59.979Z,43.30
2023-05-08T16:36:32.912Z,38.62
2023-05-08T16:39:05.842Z,37.51
2023-05-08T16:41:38.698Z,36.87
2023-05-08T16:44:12.486Z,37.78
2023-05-08T16:46:45.355Z,39.61
2023-05-08T16:49:20.232Z,39.83
2023-05-08T16:51:53.026Z,42.90
2023-05-08T16:54:25.853Z,41.48
2023-05-08T16:56:58.730Z,42.42
2023-05-08T16:59:32.125Z,41.87
2023-05-08T17:02:05.034Z,40.23
2023-05-08T17:04:39.384Z,35.76
2023-05-08T17:07:12.209Z,36.20
2023-05-08T17:09:45.957Z,40.52
2023-05-08T17:12:18.766Z,42.74
2023-05-08T17:14:51.621Z,44.17
2023-05-08T17:17:24.426Z,44.41
2023-05-08T17:19:58.717Z,43.05
2023-05-08T17:22:31.564Z,43.65
2023-05-08T17:25:05.827Z,41.95
2023-05-08T17:27:38.514Z,43.80
2023-05-08T17:30:12.537Z,45.58
2023-05-08T17:32:46.472Z,46.50
2023-05-08T17:35:21.366Z,48.02
2023-05-08T17:37:54.244Z,50.23
2023-05-08T17:40:28.680Z,51.13
2023-05-08T17:43:01.670Z,48.94
2023-05-08T17:45:34.476Z,49.66
2023-05-08T17:48:07.720Z,51.85
2023-05-08T17:50:43.381Z,51.81
2023-05-08T17:53:16.287Z,52.33
2023-05-08T17:55:49.382Z,53.40
2023-05-08T17:58:22.259Z,53.69
2023-05-08T18:00:55.916Z,53.65
2023-05-08T18:03:28.796Z,53.96
2023-05-08T18:06:02.957Z,54.06
2023-05-08T18:08:36.277Z,54.41
2023-05-08T18:11:16.325Z,54.63
2023-05-08T18:13:49.640Z,54.91
2023-05-08T18:16:23.396Z,55.21
2023-05-08T18:18:56.320Z,55.49
2023-05-08T18:21:31.516Z,54.53
2023-05-08T18:24:04.719Z,55.96
2023-05-08T18:26:37.965Z,55.46
2023-05-08T18:29:11.023Z,55.56
2023-05-08T18:31:43.923Z,56.48
2023-05-08T18:34:16.772Z,56.50
2023-05-08T18:36:50.973Z,56.23
2023-05-08T18:39:23.842Z,56.22
2023-05-08T18:41:56.744Z,56.26
2023-05-08T18:44:29.733Z,57.24
2023-05-08T18:47:02.643Z,57.77
2023-05-08T18:49:35.600Z,57.43
2023-05-08T18:52:09.833Z,57.39
2023-05-08T18:54:42.577Z,58.36
2023-05-08T18:57:15.432Z,58.51
2023-05-08T18:59:48.273Z,59.03
2023-05-08T19:02:21.100Z,58.92
2023-05-08T19:04:53.935Z,59.09
2023-05-08T19:07:28.159Z,59.82
2023-05-08T19:10:00.978Z,61.98
2023-05-08T19:12:33.965Z,60.77
2023-05-08T19:15:08.761Z,61.52
2023-05-08T19:17:41.664Z,62.43
2023-05-08T19:20:15.326Z,63.31
2023-05-08T19:22:49.923Z,64.78
2023-05-08T19:25:22.988Z,64.20
2023-05-08T19:27:56.472Z,64.57
2023-05-08T19:30:29.273Z,64.22
2023-05-08T19:33:02.648Z,65.12
2023-05-08T19:35:35.557Z,64.85
2023-05-08T19:38:09.778Z,64.82
2023-05-08T19:40:55.711Z,66.37
2023-05-08T19:43:30.684Z,64.63
2023-05-08T19:46:03.564Z,66.65
2023-05-08T19:48:36.551Z,66.23
2023-05-08T19:51:11.426Z,67.42
2023-05-08T19:53:45.600Z,66.44
2023-05-08T19:56:18.425Z,67.49
2023-05-08T19:58:51.294Z,68.35
2023-05-08T20:01:24.269Z,67.06
2023-05-08T20:03:59.702Z,68.28
2023-05-08T20:06:33.473Z,67.67
2023-05-08T20:09:07.694Z,67.75
2023-05-08T20:11:40.574Z,68.35
2023-05-08T20:14:13.709Z,68.33
2023-05-08T20:16:46.825Z,68.60
2023-05-08T20:19:19.932Z,67.58
2023-05-08T20:21:52.760Z,67.64
2023-05-08T20:24:26.955Z,68.21
2023-05-08T20:27:00.002Z,68.53
2023-05-08T20:29:32.868Z,69.54
2023-05-08T20:32:07.443Z,67.41
2023-05-08T20:34:40.461Z,69.38
2023-05-08T20:37:16.010Z,69.19
2023-05-08T20:39:50.278Z,69.14
2023-05-08T20:42:23.394Z,71.15
2023-05-08T20:44:56.195Z,67.21
2023-05-08T20:47:29.385Z,68.71
2023-05-08T20:50:02.955Z,71.56
2023-05-08T20:52:38.058Z,70.86
2023-05-08T20:55:13.343Z,70.19
2023-05-08T20:57:46.145Z,70.31
2023-05-08T21:00:19.644Z,70.08
2023-05-08T21:02:52.534Z,70.93
2023-05-08T21:05:25.563Z,72.30
2023-05-08T21:08:00.094Z,73.51
2023-05-08T21:10:34.150Z,73.13
2023-05-08T21:13:07.379Z,74.67
2023-05-08T21:15:40.222Z,74.66
2023-05-08T21:18:13.385Z,75.34
2023-05-08T21:20:49.837Z,75.06
2023-05-08T21:23:22.914Z,75.28
2023-05-08T21:25:57.074Z,74.92
2023-05-08T21:28:29.867Z,71.96
2023-05-08T21:31:02.723Z,74.36
2023-05-08T21:33:35.625Z,74.34
2023-05-08T21:36:09.022Z,72.64
2023-05-08T21:38:42.556Z,71.71
2023-05-08T21:41:16.813Z,74.91
2023-05-08T21:43:50.012Z,71.69
2023-05-08T21:46:22.975Z,74.41
2023-05-08T21:48:55.894Z,71.43
2023-05-08T21:51:28.695Z,73.41
2023-05-08T21:54:01.616Z,72.92
2023-05-08T21:56:35.942Z,75.13
2023-05-08T21:59:08.804Z,74.87
2023-05-08T22:01:42.233Z,76.50
2023-05-08T22:04:15.154Z,78.54
2023-05-08T22:06:47.941Z,76.80
2023-05-08T22:09:20.753Z,78.69
2023-05-08T22:11:54.930Z,76.14
2023-05-08T22:14:27.769Z,75.27
2023-05-08T22:17:00.929Z,75.48
2023-05-08T22:19:33.738Z,75.35
2023-05-08T22:22:06.660Z,76.54
2023-05-08T22:24:39.496Z,76.49
2023-05-08T22:27:13.652Z,77.43
2023-05-08T22:29:46.816Z,78.28
2023-05-08T22:32:19.611Z,75.63
2023-05-08T22:34:52.453Z,75.66
2023-05-08T22:37:26.414Z,77.50
2023-05-08T22:39:59.478Z,76.74
2023-05-08T22:42:33.703Z,76.09
2023-05-08T22:45:07.614Z,75.30
2023-05-08T22:47:41.299Z,74.11
2023-05-08T22:50:16.921Z,75.51
2023-05-08T22:52:49.715Z,73.33
2023-05-08T22:55:22.803Z,73.77
2023-05-08T22:57:56.960Z,76.39
2023-05-08T23:00:29.875Z,77.03
2023-05-08T23:03:02.812Z,75.29
2023-05-08T23:05:35.918Z,76.04
2023-05-08T23:08:08.713Z,76.48
2023-05-08T23:10:41.956Z,76.19
2023-05-08T23:13:16.361Z,73.93
2023-05-08T23:15:49.207Z,76.03
2023-05-08T23:18:22.339Z,74.29
2023-05-08T23:20:55.164Z,75.81
2023-05-08T23:23:27.965Z,77.45
2023-05-08T23:26:04.633Z,77.28
2023-05-08T23:28:38.857Z,78.68
2023-05-08T23:31:11.737Z,78.17
2023-05-08T23:33:44.636Z,77.48
2023-05-08T23:36:17.983Z,73.75
2023-05-08T23:38:50.846Z,74.68
2023-05-08T23:41:24.048Z,77.20
2023-05-08T23:43:58.212Z,75.86
2023-05-08T23:46:31.472Z,76.58
2023-05-08T23:49:05.268Z,78.67
2023-05-08T23:51:38.226Z,79.46
2023-05-08T23:54:11.025Z,77.14
2023-05-08T23:56:44.491Z,79.19
2023-05-08T23:59:18.687Z,79.89
